createdAt,value
2023-10-05T00:02:37.385Z,87.39
2023-10-05T00:06:07.403Z,88.18
2023-10-05T00:09:31.168Z,87.17
2023-10-05T00:12:56.607Z,87.62
2023-10-05T00:16:23.261Z,88.21
2023-10-05T00:19:47.926Z,90.01
2023-10-05T00:23:12.000Z,88.22
2023-10-05T00:26:36.467Z,91.33
2023-10-05T00:30:00.209Z,92.00
2023-10-05T00:33:26.649Z,89.73
2023-10-05T00:36:51.865Z,90.96
2023-10-05T00:40:32.371Z,92.90
2023-10-05T00:43:56.940Z,91.60
2023-10-05T00:47:21.103Z,91.06
2023-10-05T00:50:48.062Z,92.50
2023-10-05T00:54:16.077Z,92.91
2023-10-05T00:57:39.920Z,93.78
2023-10-05T01:01:07.331Z,93.13
2023-10-05T01:04:36.365Z,92.72
2023-10-05T01:08:05.740Z,91.82
2023-10-05T01:11:38.773Z,92.40
2023-10-05T01:15:06.724Z,91.17
2023-10-05T01:18:32.541Z,92.79
2023-10-05T01:21:58.886Z,91.16
2023-10-05T01:25:23.951Z,90.33
2023-10-05T01:28:47.927Z,90.77
2023-10-05T01:32:12.460Z,91.32
2023-10-05T01:35:39.164Z,89.90
2023-10-05T01:39:09.707Z,89.38
2023-10-05T01:42:35.130Z,88.78
2023-10-05T01:45:58.954Z,88.67
2023-10-05T01:49:23.229Z,88.96
2023-10-05T01:52:47.510Z,87.67
2023-10-05T01:56:19.242Z,88.73
2023-10-05T01:59:45.576Z,89.30
2023-10-05T02:03:11.547Z,89.39
2023-10-05T02:06:41.470Z,90.26
2023-10-05T02:10:11.024Z,90.08
2023-10-05T02:13:34.944Z,90.49
2023-10-05T02:17:00.229Z,91.27
2023-10-05T02:20:39.953Z,90.00
2023-10-05T02:24:12.137Z,90.27
2023-10-05T02:27:39.906Z,89.67
2023-10-05T02:31:10.397Z,90.64
2023-10-05T02:34:41.185Z,88.97
2023-10-05T02:38:07.740Z,89.57
2023-10-05T02:41:39.659Z,91.02
2023-10-05T02:45:05.981Z,91.85
2023-10-05T02:48:32.164Z,89.91
2023-10-05T02:51:56.701Z,91.23
2023-10-05T02:55:19.879Z,89.64
2023-10-05T02:58:45.051Z,90.29
2023-10-05T03:02:10.972Z,88.63
2023-10-05T03:05:36.740Z,90.79
2023-10-05T03:09:08.729Z,89.93
2023-10-05T03:12:33.804Z,88.43
2023-10-05T03:16:00.841Z,88.37
2023-10-05T03:19:24.916Z,86.84
2023-10-05T03:22:48.731Z,88.05
2023-10-05T03:26:19.778Z,88.77
2023-10-05T03:29:47.710Z,88.64
2023-10-05T03:33:14.179Z,86.77
2023-10-05T03:36:37.838Z,88.30
2023-10-05T03:40:09.547Z,88.95
2023-10-05T03:43:34.601Z,89.03
2023-10-05T03:46:59.370Z,88.50
2023-10-05T03:50:24.330Z,88.58
2023-10-05T03:53:54.753Z,90.04
2023-10-05T03:57:18.362Z,90.36
2023-10-05T04:00:51.076Z,89.85
2023-10-05T04:04:15.430Z,91.04
2023-10-05T04:07:39.855Z,91.01
2023-10-05T04:11:06.048Z,89.51
2023-10-05T04:14:30.162Z,91.31
2023-10-05T04:17:55.712Z,91.84
2023-10-05T04:21:20.976Z,92.33
2023-10-05T04:24:46.124Z,90.97
2023-10-05T04:28:10.429Z,91.03
2023-10-05T04:31:37.733Z,91.49
2023-10-05T04:35:09.706Z,90.95
2023-10-05T04:38:34.066Z,91.75
2023-10-05T04:42:00.597Z,91.00
2023-10-05T04:45:25.245Z,90.61
2023-10-05T04:48:58.470Z,92.29
2023-10-05T04:52:25.696Z,93.14
2023-10-05T04:55:55.031Z,93.86
2023-10-05T04:59:26.500Z,92.49
2023-10-05T05:03:06.658Z,93.38
2023-10-05T05:06:33.533Z,92.18
2023-10-05T05:10:03.558Z,91.88
2023-10-05T05:13:29.624Z,92.60
2023-10-05T05:16:53.926Z,91.71
2023-10-05T05:20:18.810Z,92.93
2023-10-05T05:23:42.546Z,94.16
2023-10-05T05:27:13.391Z,93.77
2023-10-05T05:30:38.098Z,95.15
2023-10-05T05:34:03.644Z,95.34
2023-10-05T05:37:30.929Z,95.85
2023-10-05T05:40:55.380Z,94.81
2023-10-05T05:44:23.301Z,94.79
2023-10-05T05:47:47.718Z,94.34
2023-10-05T05:51:16.043Z,95.46
2023-10-05T05:54:40.402Z,96.12
2023-10-05T05:58:06.197Z,96.28
2023-10-05T06:01:42.760Z,95.74
2023-10-05T06:05:09.447Z,95.67
2023-10-05T06:08:32.430Z,94.43
2023-10-05T06:11:55.596Z,94.02
2023-10-05T06:15:18.493Z,93.19
2023-10-05T06:18:43.637Z,90.95
2023-10-05T06:22:08.159Z,89.88
2023-10-05T06:25:32.883Z,89.31
2023-10-05T06:28:57.349Z,87.11
2023-10-05T06:32:20.718Z,84.61
2023-10-05T06:35:45.412Z,84.09
2023-10-05T06:39:08.578Z,81.40
2023-10-05T06:42:31.838Z,79.48
2023-10-05T06:45:54.837Z,78.59
2023-10-05T06:49:17.673Z,77.34
2023-10-05T06:52:44.674Z,75.66
2023-10-05T06:56:08.186Z,76.25
2023-10-05T06:59:32.721Z,75.21
2023-10-05T07:02:56.576Z,73.44
2023-10-05T07:06:20.661Z,74.09
2023-10-05T07:09:46.376Z,73.16
2023-10-05T07:13:10.776Z,72.28
2023-10-05T07:16:34.304Z,72.25
2023-10-05T07:19:58.605Z,70.27
2023-10-05T07:23:22.456Z,70.18
2023-10-05T07:26:48.226Z,68.12
2023-10-05T07:30:12.771Z,65.79
2023-10-05T07:33:37.379Z,65.50
2023-10-05T07:37:01.815Z,63.28
2023-10-05T07:40:27.686Z,63.94
2023-10-05T07:47:42.449Z,57.85
2023-10-05T07:51:06.105Z,54.38
2023-10-05T07:54:30.058Z,47.42
2023-10-05T07:57:54.364Z,43.83
2023-10-05T08:01:20.305Z,42.77
2023-10-05T08:04:46.550Z,43.43
2023-10-05T08:08:11.995Z,44.37
2023-10-05T08:11:36.253Z,40.65
2023-10-05T08:15:01.221Z,41.41
2023-10-05T08:18:27.333Z,39.98
2023-10-05T08:21:51.067Z,39.48
2023-10-05T08:25:14.877Z,40.84
2023-10-05T08:28:38.798Z,36.77
2023-10-05T08:32:03.571Z,37.31
2023-10-05T08:35:28.970Z,40.28
2023-10-05T08:38:55.691Z,39.54
2023-10-05T08:42:19.487Z,35.99
2023-10-05T08:45:53.371Z,37.68
2023-10-05T08:49:17.870Z,37.13
2023-10-05T08:52:43.864Z,34.21
2023-10-05T08:56:06.585Z,34.33
2023-10-05T08:59:30.268Z,33.03
2023-10-05T09:02:54.335Z,33.64
2023-10-05T09:06:22.525Z,34.80
2023-10-05T09:09:55.910Z,30.98
2023-10-05T09:13:24.799Z,32.38
2023-10-05T09:16:57.429Z,33.63
2023-10-05T09:20:24.821Z,33.04
2023-10-05T09:23:52.756Z,32.75
2023-10-05T09:27:18.955Z,30.27
2023-10-05T09:30:57.479Z,30.38
2023-10-05T09:34:22.536Z,31.24
2023-10-05T09:37:48.099Z,30.04
2023-10-05T09:41:13.311Z,29.66
2023-10-05T09:44:38.715Z,29.40
2023-10-05T09:48:03.791Z,30.81
2023-10-05T09:51:28.179Z,31.45
2023-10-05T09:54:52.573Z,30.85
2023-10-05T09:58:19.811Z,30.66
2023-10-05T10:01:49.260Z,30.24
2023-10-05T10:05:31.861Z,29.64
2023-10-05T10:09:09.199Z,27.69
2023-10-05T10:12:40.142Z,26.96
2023-10-05T10:16:05.314Z,31.00
2023-10-05T10:19:46.916Z,30.72
2023-10-05T10:23:16.446Z,26.62
2023-10-05T10:26:43.177Z,29.35
2023-10-05T10:30:14.154Z,27.56
2023-10-05T10:33:38.794Z,27.52
2023-10-05T10:37:05.019Z,28.82
2023-10-05T10:40:31.845Z,25.47
2023-10-05T10:43:58.942Z,26.95
2023-10-05T10:47:24.115Z,26.12
2023-10-05T10:50:49.218Z,28.65
2023-10-05T10:54:17.169Z,28.05
2023-10-05T10:57:40.395Z,28.13
2023-10-05T11:01:05.888Z,26.98
2023-10-05T11:04:50.128Z,26.96
2023-10-05T11:08:22.324Z,28.19
2023-10-05T11:11:46.909Z,30.58
2023-10-05T11:15:12.924Z,28.93
2023-10-05T11:18:42.564Z,28.33
2023-10-05T11:22:13.666Z,29.79
2023-10-05T11:25:38.253Z,28.37
2023-10-05T11:29:11.718Z,27.37
2023-10-05T11:32:55.733Z,27.46
2023-10-05T11:36:23.973Z,28.56
2023-10-05T11:39:51.222Z,27.10
2023-10-05T11:43:16.998Z,27.32
2023-10-05T11:46:45.772Z,28.79
2023-10-05T11:50:10.571Z,27.62
2023-10-05T11:53:33.577Z,26.88
2023-10-05T11:56:57.352Z,26.71
2023-10-05T12:00:21.286Z,27.62
2023-10-05T12:03:48.882Z,27.99
2023-10-05T12:07:14.491Z,27.52
2023-10-05T12:10:39.582Z,26.46
2023-10-05T12:14:06.209Z,28.70
2023-10-05T12:17:30.645Z,28.01
2023-10-05T12:20:55.868Z,26.40
2023-10-05T12:24:19.152Z,28.21
2023-10-05T12:27:42.632Z,29.47
2023-10-05T12:31:08.265Z,26.68
2023-10-05T12:34:33.583Z,26.75
2023-10-05T12:38:00.244Z,26.45
2023-10-05T12:41:23.839Z,26.35
2023-10-05T12:44:49.012Z,27.27
2023-10-05T12:48:13.579Z,26.71
2023-10-05T12:51:37.765Z,26.29
2023-10-05T12:55:03.599Z,25.71
2023-10-05T12:58:27.458Z,25.22
2023-10-05T13:01:51.006Z,24.69
2023-10-05T13:05:28.602Z,25.71
2023-10-05T13:08:57.632Z,25.92
2023-10-05T13:12:23.303Z,25.79
2023-10-05T13:15:47.826Z,27.70
2023-10-05T13:19:14.695Z,26.17
2023-10-05T13:22:39.211Z,26.67
2023-10-05T13:26:03.395Z,25.74
2023-10-05T13:29:28.955Z,26.95
2023-10-05T13:32:59.482Z,25.80
2023-10-05T13:36:23.593Z,26.94
2023-10-05T13:39:47.493Z,25.80
2023-10-05T13:43:12.862Z,27.07
2023-10-05T13:46:44.803Z,25.32
2023-10-05T13:50:10.600Z,25.62
2023-10-05T13:53:36.583Z,28.21
2023-10-05T13:57:01.960Z,28.11
2023-10-05T14:00:26.496Z,28.20
2023-10-05T14:03:51.917Z,28.13
2023-10-05T14:07:15.506Z,28.94
2023-10-05T14:10:39.478Z,27.45
2023-10-05T14:14:02.609Z,28.78
2023-10-05T14:17:27.165Z,27.93
2023-10-05T14:20:52.657Z,27.82
2023-10-05T14:24:19.543Z,27.95
2023-10-05T14:27:48.515Z,28.07
2023-10-05T14:31:12.837Z,32.11
2023-10-05T14:34:36.870Z,33.36
2023-10-05T14:38:04.513Z,33.12
2023-10-05T14:41:27.352Z,33.53
2023-10-05T14:44:51.347Z,33.75
2023-10-05T14:48:15.640Z,32.07
2023-10-05T14:51:40.151Z,31.12
2023-10-05T14:55:05.583Z,32.42
2023-10-05T14:58:31.130Z,32.88
2023-10-05T15:01:56.654Z,33.42
2023-10-05T15:05:21.058Z,34.39
2023-10-05T15:08:47.136Z,34.61
2023-10-05T15:12:12.407Z,33.92
2023-10-05T15:15:35.801Z,34.68
2023-10-05T15:19:00.847Z,36.09
2023-10-05T15:22:26.697Z,36.25
2023-10-05T15:25:52.055Z,37.48
2023-10-05T15:29:18.362Z,39.55
2023-10-05T15:32:43.034Z,39.96
2023-10-05T15:36:07.627Z,40.16
2023-10-05T15:39:32.263Z,40.67
2023-10-05T15:42:56.259Z,41.63
2023-10-05T15:46:21.774Z,41.37
2023-10-05T15:49:46.823Z,42.62
2023-10-05T15:53:11.304Z,43.36
2023-10-05T15:56:34.926Z,44.05
2023-10-05T15:59:59.129Z,44.81
2023-10-05T16:03:24.437Z,45.77
2023-10-05T16:06:48.712Z,46.55
2023-10-05T16:10:12.598Z,46.98
2023-10-05T16:13:36.965Z,47.26
2023-10-05T16:17:00.730Z,50.62
2023-10-05T16:20:27.877Z,51.28
2023-10-05T16:23:51.561Z,51.49
2023-10-05T16:27:15.684Z,52.18
2023-10-05T16:30:39.676Z,51.80
2023-10-05T16:34:04.500Z,52.96
2023-10-05T16:37:32.218Z,52.42
2023-10-05T16:40:58.537Z,52.31
2023-10-05T16:44:23.359Z,54.18
2023-10-05T16:47:47.726Z,53.80
2023-10-05T16:51:12.122Z,53.85
2023-10-05T16:54:40.029Z,55.75
2023-10-05T16:58:05.898Z,54.56
2023-10-05T17:01:30.854Z,56.76
2023-10-05T17:04:55.806Z,57.39
2023-10-05T17:08:23.279Z,56.60
2023-10-05T17:11:49.125Z,57.01
2023-10-05T17:15:14.672Z,57.61
2023-10-05T17:18:40.675Z,58.10
2023-10-05T17:22:06.167Z,59.98
2023-10-05T17:25:34.748Z,58.87
2023-10-05T17:29:00.999Z,59.75
2023-10-05T17:32:26.550Z,60.26
2023-10-05T17:35:53.074Z,60.74
2023-10-05T17:39:17.776Z,61.05
2023-10-05T17:42:43.203Z,62.08
2023-10-05T17:46:11.409Z,62.68
2023-10-05T17:49:39.273Z,62.18
2023-10-05T17:53:08.149Z,62.19
2023-10-05T17:56:34.956Z,64.12
2023-10-05T17:59:59.287Z,65.66
2023-10-05T18:03:28.622Z,66.21
2023-10-05T18:06:54.723Z,65.52
2023-10-05T18:10:20.348Z,65.86
2023-10-05T18:13:48.008Z,66.21
2023-10-05T18:17:12.774Z,66.84
2023-10-05T18:20:41.532Z,67.86
2023-10-05T18:24:10.206Z,67.96
2023-10-05T18:27:37.579Z,70.00
2023-10-05T18:31:07.170Z,68.54
2023-10-05T18:34:34.472Z,68.41
2023-10-05T18:38:03.438Z,68.73
2023-10-05T18:41:31.110Z,69.26
2023-10-05T18:44:57.752Z,69.04
2023-10-05T18:48:23.804Z,69.06
2023-10-05T18:51:52.496Z,69.54
2023-10-05T18:55:22.493Z,69.03
2023-10-05T18:58:48.748Z,71.24
2023-10-05T19:02:19.869Z,70.22
2023-10-05T19:05:46.683Z,70.52
2023-10-05T19:09:14.391Z,69.01
2023-10-05T19:12:44.123Z,71.01
2023-10-05T19:16:12.482Z,71.25
2023-10-05T19:19:39.019Z,69.89
2023-10-05T19:23:06.947Z,71.61
2023-10-05T19:26:33.371Z,70.10
2023-10-05T19:30:01.066Z,71.76
2023-10-05T19:33:26.948Z,71.39
2023-10-05T19:36:52.068Z,71.69
2023-10-05T19:40:19.706Z,71.76
2023-10-05T19:43:46.533Z,72.34
2023-10-05T19:47:20.006Z,72.31
2023-10-05T19:50:46.146Z,72.67
2023-10-05T19:54:14.371Z,72.72
2023-10-05T19:57:41.672Z,75.23
2023-10-05T20:01:08.518Z,73.81
2023-10-05T20:04:37.114Z,74.74
2023-10-05T20:08:05.103Z,74.09
2023-10-05T20:11:30.073Z,74.97
2023-10-05T20:14:55.789Z,75.20
2023-10-05T20:18:22.399Z,75.78
2023-10-05T20:21:51.604Z,75.12
2023-10-05T20:25:16.636Z,75.47
2023-10-05T20:28:42.906Z,73.92
2023-10-05T20:32:07.327Z,73.88
2023-10-05T20:35:31.793Z,74.37
2023-10-05T20:38:57.516Z,73.52
2023-10-05T20:42:21.582Z,73.63
2023-10-05T20:45:45.958Z,74.81
2023-10-05T20:49:10.766Z,76.07
2023-10-05T20:52:35.184Z,74.88
2023-10-05T20:56:00.548Z,76.40
2023-10-05T20:59:27.997Z,75.95
2023-10-05T21:02:52.379Z,76.27
2023-10-05T21:06:17.210Z,76.18
2023-10-05T21:09:41.863Z,76.11
2023-10-05T21:13:07.582Z,77.02
2023-10-05T21:16:31.817Z,78.23
2023-10-05T21:19:56.452Z,78.43
2023-10-05T21:23:20.962Z,79.31
2023-10-05T21:26:45.208Z,80.50
2023-10-05T21:30:12.710Z,80.58
2023-10-05T21:33:36.943Z,81.21
2023-10-05T21:37:01.055Z,80.79
2023-10-05T21:40:25.622Z,81.90
2023-10-05T21:43:50.268Z,80.11
2023-10-05T21:47:17.069Z,80.63
2023-10-05T21:50:40.735Z,81.15
2023-10-05T21:54:05.369Z,81.33
2023-10-05T21:57:29.658Z,81.66
2023-10-05T22:00:55.624Z,80.85
2023-10-05T22:04:21.756Z,81.07
2023-10-05T22:07:47.520Z,81.56
2023-10-05T22:11:12.578Z,81.17
2023-10-05T22:14:36.736Z,82.14
2023-10-05T22:18:01.019Z,81.11
2023-10-05T22:21:26.339Z,81.96
2023-10-05T22:24:51.032Z,81.77
2023-10-05T22:28:15.058Z,81.96
2023-10-05T22:31:39.593Z,84.66
2023-10-05T22:35:04.965Z,83.61
2023-10-05T22:38:41.585Z,84.56
2023-10-05T22:42:08.759Z,83.76
2023-10-05T22:45:34.150Z,85.24
2023-10-05T22:48:58.711Z,84.82
2023-10-05T22:52:22.596Z,85.11
2023-10-05T22:55:47.932Z,84.02
2023-10-05T22:59:12.107Z,85.44
2023-10-05T23:02:35.962Z,83.99
2023-10-05T23:06:00.271Z,83.59
2023-10-05T23:09:24.742Z,82.32
2023-10-05T23:12:50.313Z,83.69
2023-10-05T23:16:19.083Z,81.98
2023-10-05T23:19:44.905Z,82.59
2023-10-05T23:23:09.429Z,83.29
2023-10-05T23:26:33.615Z,84.29
2023-10-05T23:29:59.092Z,85.62
2023-10-05T23:33:27.488Z,85.17
2023-10-05T23:36:51.781Z,85.45
2023-10-05T23:40:17.397Z,85.73
2023-10-05T23:43:42.421Z,86.57
2023-10-05T23:47:23.823Z,86.69
2023-10-05T23:50:48.652Z,86.44
2023-10-05T23:54:13.191Z,87.37
2023-10-05T23:57:37.764Z,89.19
